createdAt,value
2023-03-26T00:02:00.138Z,3.13
2023-03-26T00:04:30.446Z,1.40
2023-03-26T00:07:01.083Z,2.95
2023-03-26T00:09:31.615Z,3.88
2023-03-26T00:12:02.104Z,2.75
2023-03-26T00:14:32.428Z,1.30
2023-03-26T00:17:03.226Z,3.13
2023-03-26T00:19:34.395Z,2.70
2023-03-26T00:22:05.517Z,2.65
2023-03-26T00:24:39.669Z,2.78
2023-03-26T00:27:10.532Z,3.63
2023-03-26T00:29:41.665Z,2.50
2023-03-26T00:32:12.446Z,2.97
2023-03-26T00:34:43.139Z,2.00
2023-03-26T00:37:14.592Z,2.50
2023-03-26T00:39:46.735Z,1.35
2023-03-26T00:42:17.485Z,2.03
2023-03-26T00:44:47.887Z,1.70
2023-03-26T00:47:18.546Z,1.92
2023-03-26T00:49:50.539Z,2.35
2023-03-26T00:52:21.655Z,3.28
2023-03-26T00:54:54.388Z,2.20
2023-03-26T00:57:34.888Z,2.15
2023-03-26T01:00:18.483Z,2.80
2023-03-26T01:02:48.855Z,1.55
2023-03-26T01:05:50.561Z,2.80
2023-03-26T01:08:51.031Z,1.38
2023-03-26T01:11:29.734Z,1.25
2023-03-26T01:14:13.837Z,3.25
2023-03-26T01:16:57.064Z,2.80
2023-03-26T01:19:46.887Z,2.97
2023-03-26T01:22:25.103Z,2.72
2023-03-26T01:24:58.477Z,2.25
2023-03-26T01:27:43.081Z,3.05
2023-03-26T01:30:25.406Z,2.17
2023-03-26T01:33:06.145Z,2.17
2023-03-26T01:35:43.063Z,3.30
2023-03-26T01:38:27.958Z,3.03
2023-03-26T01:41:16.854Z,3.00
2023-03-26T01:44:18.252Z,1.95
2023-03-26T01:46:49.418Z,2.95
2023-03-26T01:49:21.597Z,2.35
2023-03-26T01:51:53.045Z,3.10
2023-03-26T01:54:28.494Z,3.28
2023-03-26T01:57:18.215Z,4.28
2023-03-26T02:00:08.841Z,3.38
2023-03-26T02:02:48.642Z,3.45
2023-03-26T02:05:31.092Z,2.95
2023-03-26T02:08:37.175Z,2.90
2023-03-26T02:11:16.011Z,2.30
2023-03-26T02:13:49.405Z,2.60
2023-03-26T02:16:22.206Z,1.77
2023-03-26T02:18:57.416Z,2.88
2023-03-26T02:21:29.949Z,6.18
2023-03-26T02:24:10.515Z,2.58
2023-03-26T02:26:40.832Z,2.47
2023-03-26T02:29:12.244Z,2.83
2023-03-26T02:31:42.654Z,2.28
2023-03-26T02:34:13.018Z,1.80
2023-03-26T02:36:45.800Z,2.35
2023-03-26T02:39:16.289Z,2.33
2023-03-26T02:41:47.048Z,3.05
2023-03-26T02:44:17.386Z,3.22
2023-03-26T02:46:48.061Z,2.28
2023-03-26T02:49:19.757Z,2.13
2023-03-26T02:51:50.500Z,2.75
2023-03-26T02:54:22.132Z,2.47
2023-03-26T02:56:52.537Z,2.03
2023-03-26T02:59:23.105Z,2.85
2023-03-26T03:01:53.347Z,2.35
2023-03-26T03:04:23.623Z,2.78
2023-03-26T03:06:59.144Z,3.90
2023-03-26T03:09:29.543Z,2.20
2023-03-26T03:12:00.956Z,2.17
2023-03-26T03:14:33.309Z,2.80
2023-03-26T03:17:04.235Z,2.17
2023-03-26T03:19:34.633Z,2.90
2023-03-26T03:22:04.875Z,4.53
2023-03-26T03:24:35.769Z,1.85
2023-03-26T03:27:06.421Z,1.60
2023-03-26T03:29:37.267Z,2.20
2023-03-26T03:32:08.408Z,1.60
2023-03-26T03:34:40.693Z,2.08
2023-03-26T03:37:11.181Z,3.72
2023-03-26T03:39:44.693Z,3.08
2023-03-26T03:42:16.821Z,2.15
2023-03-26T03:44:48.047Z,1.90
2023-03-26T03:47:18.422Z,2.45
2023-03-26T03:49:48.675Z,3.13
2023-03-26T03:52:19.838Z,3.72
2023-03-26T03:54:50.246Z,1.60
2023-03-26T03:57:23.609Z,1.85
2023-03-26T03:59:53.906Z,3.72
2023-03-26T04:02:36.206Z,2.33
2023-03-26T04:05:08.085Z,4.90
2023-03-26T04:07:38.517Z,4.68
2023-03-26T04:10:11.431Z,2.45
2023-03-26T04:12:41.843Z,2.83
2023-03-26T04:15:12.397Z,3.28
2023-03-26T04:17:46.662Z,3.65
2023-03-26T04:20:18.915Z,3.83
2023-03-26T04:22:49.288Z,2.10
2023-03-26T04:25:19.884Z,2.58
2023-03-26T04:27:50.852Z,2.10
2023-03-26T04:30:22.525Z,2.88
2023-03-26T04:32:53.435Z,2.28
2023-03-26T04:35:25.354Z,1.95
2023-03-26T04:37:56.123Z,3.63
2023-03-26T04:40:26.471Z,2.13
2023-03-26T04:43:00.045Z,3.28
2023-03-26T04:45:32.045Z,4.03
2023-03-26T04:48:02.553Z,5.93
2023-03-26T04:50:32.896Z,3.25
2023-03-26T04:53:04.133Z,2.85
2023-03-26T04:56:16.045Z,2.63
2023-03-26T04:58:46.409Z,1.80
2023-03-26T05:01:18.768Z,3.00
2023-03-26T05:03:49.232Z,1.55
2023-03-26T05:06:20.957Z,1.52
2023-03-26T05:08:51.280Z,2.90
2023-03-26T05:11:21.568Z,4.97
2023-03-26T05:13:52.180Z,4.82
2023-03-26T05:16:24.132Z,1.35
2023-03-26T05:18:56.142Z,3.17
2023-03-26T05:21:26.529Z,2.63
2023-03-26T05:23:57.086Z,3.30
2023-03-26T05:26:27.780Z,2.53
2023-03-26T05:28:58.589Z,2.90
2023-03-26T05:31:32.772Z,1.98
2023-03-26T05:34:03.296Z,2.25
2023-03-26T05:36:34.358Z,2.45
2023-03-26T05:39:04.973Z,1.98
2023-03-26T05:41:35.495Z,2.53
2023-03-26T05:44:06.215Z,6.55
2023-03-26T05:46:36.942Z,2.50
2023-03-26T05:49:07.395Z,2.65
2023-03-26T05:51:38.183Z,3.55
2023-03-26T05:54:09.110Z,2.88
2023-03-26T05:56:40.088Z,2.67
2023-03-26T05:59:11.041Z,2.45
2023-03-26T06:01:46.054Z,2.50
2023-03-26T06:04:18.164Z,2.20
2023-03-26T06:06:49.460Z,3.20
2023-03-26T06:09:20.753Z,3.10
2023-03-26T06:11:51.521Z,1.83
2023-03-26T06:14:23.108Z,2.38
2023-03-26T06:16:54.415Z,2.15
2023-03-26T06:19:25.123Z,3.45
2023-03-26T06:21:56.250Z,2.50
2023-03-26T06:24:27.009Z,2.97
2023-03-26T06:27:00.914Z,3.05
2023-03-26T06:29:31.600Z,3.22
2023-03-26T06:32:16.249Z,2.72
2023-03-26T06:34:51.081Z,2.63
2023-03-26T06:37:21.836Z,3.00
2023-03-26T06:39:52.448Z,2.88
2023-03-26T06:43:06.987Z,3.08
2023-03-26T06:45:16.477Z,2.90
2023-03-26T06:47:47.598Z,2.22
2023-03-26T06:50:19.003Z,2.30
2023-03-26T06:52:54.869Z,2.38
2023-03-26T06:55:27.116Z,5.05
2023-03-26T06:58:00.413Z,3.22
2023-03-26T07:00:31.932Z,3.25
2023-03-26T07:03:02.926Z,3.17
2023-03-26T07:05:34.952Z,2.90
2023-03-26T07:08:05.947Z,4.28
2023-03-26T07:10:38.625Z,3.05
2023-03-26T07:13:09.304Z,3.03
2023-03-26T07:15:41.484Z,4.43
2023-03-26T07:18:12.819Z,3.72
2023-03-26T07:20:45.748Z,2.83
2023-03-26T07:23:22.310Z,3.85
2023-03-26T07:25:56.471Z,3.05
2023-03-26T07:28:37.290Z,2.28
2023-03-26T07:31:36.799Z,3.15
2023-03-26T07:34:33.526Z,3.35
2023-03-26T07:37:25.721Z,5.57
2023-03-26T07:40:06.623Z,2.88
2023-03-26T07:42:49.631Z,4.45
2023-03-26T07:45:36.193Z,5.10
2023-03-26T07:48:11.911Z,2.63
2023-03-26T07:50:44.780Z,3.67
2023-03-26T07:53:17.984Z,3.10
2023-03-26T07:56:22.248Z,3.35
2023-03-26T07:59:26.053Z,1.98
2023-03-26T08:02:24.856Z,2.67
2023-03-26T08:04:56.960Z,3.70
2023-03-26T08:07:47.480Z,2.47
2023-03-26T08:10:41.467Z,2.85
2023-03-26T08:13:56.369Z,2.60
2023-03-26T08:17:03.740Z,6.88
2023-03-26T08:20:00.580Z,3.50
2023-03-26T08:23:00.283Z,4.80
2023-03-26T08:25:52.286Z,4.43
2023-03-26T08:28:38.418Z,5.28
2023-03-26T08:31:12.994Z,3.07
2023-03-26T08:33:45.723Z,2.20
2023-03-26T08:36:16.507Z,3.58
2023-03-26T08:38:47.120Z,4.72
2023-03-26T08:41:38.135Z,3.53
2023-03-26T08:44:26.059Z,2.25
2023-03-26T08:47:15.603Z,2.80
2023-03-26T08:50:05.210Z,3.53
2023-03-26T08:53:05.772Z,2.15
2023-03-26T08:56:23.742Z,3.92
2023-03-26T08:59:21.342Z,4.10
2023-03-26T09:01:54.915Z,3.47
2023-03-26T09:04:52.664Z,2.63
2023-03-26T09:07:59.409Z,3.55
2023-03-26T09:10:43.673Z,6.03
2023-03-26T09:13:50.905Z,2.00
2023-03-26T09:16:48.600Z,2.13
2023-03-26T09:19:57.283Z,3.63
2023-03-26T09:23:10.936Z,1.77
2023-03-26T09:26:16.658Z,3.33
2023-03-26T09:28:54.653Z,4.10
2023-03-26T09:32:02.180Z,2.97
2023-03-26T09:34:55.556Z,4.55
2023-03-26T09:37:57.095Z,2.40
2023-03-26T09:40:31.647Z,2.67
2023-03-26T09:43:39.396Z,2.13
2023-03-26T09:46:38.063Z,2.83
2023-03-26T09:49:11.756Z,3.45
2023-03-26T09:52:09.710Z,3.67
2023-03-26T09:55:09.929Z,4.38
2023-03-26T09:57:43.755Z,2.00
2023-03-26T10:00:41.285Z,2.70
2023-03-26T10:03:17.866Z,4.70
2023-03-26T10:05:53.376Z,3.28
2023-03-26T10:08:32.760Z,3.17
2023-03-26T10:11:15.319Z,4.13
2023-03-26T10:14:15.270Z,4.40
2023-03-26T10:17:08.346Z,3.58
2023-03-26T10:19:48.404Z,3.38
2023-03-26T10:22:30.700Z,5.72
2023-03-26T10:25:36.454Z,3.08
2023-03-26T10:28:28.258Z,4.70
2023-03-26T10:31:26.568Z,3.08
2023-03-26T10:34:29.434Z,5.22
2023-03-26T10:37:33.614Z,3.53
2023-03-26T10:40:26.026Z,3.97
2023-03-26T10:43:17.951Z,4.45
2023-03-26T10:46:16.029Z,4.13
2023-03-26T10:49:18.679Z,4.15
2023-03-26T10:52:03.137Z,3.53
2023-03-26T10:54:52.185Z,5.07
2023-03-26T10:57:40.273Z,4.15
2023-03-26T11:00:37.543Z,3.97
2023-03-26T11:03:25.773Z,4.82
2023-03-26T11:06:33.843Z,3.75
2023-03-26T11:11:49.060Z,4.90
2023-03-26T11:14:49.086Z,3.92
2023-03-26T11:17:40.198Z,4.07
2023-03-26T11:20:36.260Z,4.22
2023-03-26T11:23:29.362Z,4.15
2023-03-26T11:26:26.053Z,4.43
2023-03-26T11:29:31.393Z,3.87
2023-03-26T11:32:09.165Z,5.15
2023-03-26T11:34:58.279Z,4.03
2023-03-26T11:37:55.799Z,4.72
2023-03-26T11:40:38.082Z,4.50
2023-03-26T11:43:13.709Z,6.80
2023-03-26T11:45:49.180Z,6.28
2023-03-26T11:48:34.053Z,5.60
2023-03-26T11:51:30.011Z,4.95
2023-03-26T11:54:01.685Z,6.50
2023-03-26T11:57:04.864Z,6.50
2023-03-26T11:59:56.624Z,5.30
2023-03-26T12:02:40.491Z,3.75
2023-03-26T12:05:19.625Z,4.07
2023-03-26T12:08:00.388Z,5.55
2023-03-26T12:10:41.542Z,6.47
2023-03-26T12:13:25.353Z,4.60
2023-03-26T12:16:02.621Z,4.95
2023-03-26T12:18:34.139Z,4.53
2023-03-26T12:21:16.917Z,6.10
2023-03-26T12:23:55.099Z,6.10
2023-03-26T12:26:44.797Z,4.03
2023-03-26T12:29:18.497Z,4.93
2023-03-26T12:32:06.801Z,5.18
2023-03-26T12:34:41.885Z,4.50
2023-03-26T12:37:49.964Z,5.22
2023-03-26T12:40:36.641Z,5.93
2023-03-26T12:44:54.654Z,6.88
2023-03-26T12:47:54.319Z,5.85
2023-03-26T12:49:30.505Z,4.45
2023-03-26T12:52:23.797Z,5.78
2023-03-26T12:55:20.247Z,7.38
2023-03-26T12:58:23.777Z,7.20
2023-03-26T13:01:04.312Z,6.60
2023-03-26T13:03:45.940Z,6.47
2023-03-26T13:06:19.187Z,4.97
2023-03-26T13:09:07.331Z,6.38
2023-03-26T13:12:15.947Z,6.15
2023-03-26T13:14:59.395Z,6.57
2023-03-26T13:17:33.215Z,5.85
2023-03-26T13:20:47.373Z,5.55
2023-03-26T13:23:17.646Z,7.82
2023-03-26T13:26:19.337Z,6.75
2023-03-26T13:28:54.509Z,7.10
2023-03-26T13:32:03.738Z,7.28
2023-03-26T13:35:16.193Z,5.82
2023-03-26T13:38:08.170Z,6.28
2023-03-26T13:41:09.113Z,6.65
2023-03-26T13:44:04.088Z,8.32
2023-03-26T13:46:40.984Z,7.13
2023-03-26T13:49:17.312Z,4.35
2023-03-26T13:52:26.300Z,4.85
2023-03-26T13:55:21.634Z,5.38
2023-03-26T13:58:21.452Z,5.75
2023-03-26T14:01:18.733Z,7.75
2023-03-26T14:03:55.370Z,4.95
2023-03-26T14:09:26.793Z,7.30
2023-03-26T14:12:00.233Z,5.70
2023-03-26T14:14:46.001Z,8.63
2023-03-26T14:17:30.709Z,5.50
2023-03-26T14:20:14.515Z,6.45
2023-03-26T14:23:11.332Z,7.30
2023-03-26T14:26:15.015Z,7.72
2023-03-26T14:29:13.733Z,6.18
2023-03-26T14:32:24.584Z,10.70
2023-03-26T14:35:06.539Z,12.48
2023-03-26T14:38:00.573Z,9.55
2023-03-26T14:40:44.236Z,7.20
2023-03-26T14:43:36.287Z,9.25
2023-03-26T14:46:28.358Z,11.95
2023-03-26T14:49:15.163Z,8.32
2023-03-26T14:51:45.876Z,11.13
2023-03-26T14:54:29.322Z,7.78
2023-03-26T14:57:20.922Z,8.15
2023-03-26T15:00:18.285Z,10.05
2023-03-26T15:03:15.107Z,7.53
2023-03-26T15:05:51.192Z,9.17
2023-03-26T15:09:09.008Z,9.60
2023-03-26T15:11:51.569Z,7.18
2023-03-26T15:14:48.024Z,8.60
2023-03-26T15:17:41.560Z,10.32
2023-03-26T15:20:39.669Z,7.43
2023-03-26T15:23:44.546Z,11.10
2023-03-26T15:26:43.638Z,10.98
2023-03-26T15:29:17.116Z,9.38
2023-03-26T15:32:24.363Z,8.70
2023-03-26T15:35:17.045Z,7.18
2023-03-26T15:38:14.780Z,8.50
2023-03-26T15:40:56.306Z,7.40
2023-03-26T15:43:35.099Z,7.18
2023-03-26T15:46:12.356Z,9.38
2023-03-26T15:49:16.745Z,9.38
2023-03-26T15:52:19.616Z,9.15
2023-03-26T15:54:59.663Z,8.10
2023-03-26T15:57:36.510Z,8.45
2023-03-26T16:00:26.646Z,9.80
2023-03-26T16:03:14.099Z,7.97
2023-03-26T16:06:08.999Z,8.25
2023-03-26T16:09:09.591Z,7.53
2023-03-26T16:11:52.912Z,9.50
2023-03-26T16:14:38.586Z,8.77
2023-03-26T16:17:15.418Z,9.40
2023-03-26T16:20:12.294Z,8.80
2023-03-26T16:22:56.497Z,8.90
2023-03-26T16:25:33.772Z,8.35
2023-03-26T16:28:36.880Z,7.70
2023-03-26T16:31:37.178Z,6.50
2023-03-26T16:34:16.241Z,12.13
2023-03-26T16:36:52.007Z,9.77
2023-03-26T16:39:27.470Z,11.10
2023-03-26T16:42:06.796Z,9.15
2023-03-26T16:45:21.106Z,11.60
2023-03-26T16:48:25.081Z,10.25
2023-03-26T16:51:06.197Z,9.57
2023-03-26T16:53:58.717Z,8.50
2023-03-26T16:56:55.418Z,9.10
2023-03-26T17:00:06.252Z,10.43
2023-03-26T17:03:14.737Z,7.20
2023-03-26T17:05:59.993Z,7.57
2023-03-26T17:08:49.437Z,8.52
2023-03-26T17:11:29.019Z,9.77
2023-03-26T17:14:29.822Z,10.05
2023-03-26T17:17:06.921Z,7.60
2023-03-26T17:20:01.105Z,8.35
2023-03-26T17:22:40.859Z,11.40
2023-03-26T17:25:22.369Z,8.30
2023-03-26T17:28:18.266Z,12.18
2023-03-26T17:31:18.086Z,9.80
2023-03-26T17:33:49.601Z,10.77
2023-03-26T17:36:32.830Z,7.07
2023-03-26T17:39:24.104Z,7.93
2023-03-26T17:41:58.552Z,9.80
2023-03-26T17:45:01.330Z,10.70
2023-03-26T17:47:51.845Z,8.20
2023-03-26T17:50:28.744Z,8.65
2023-03-26T17:53:03.038Z,7.72
2023-03-26T17:55:40.414Z,8.77
2023-03-26T17:58:25.573Z,7.75
2023-03-26T18:01:24.823Z,8.82
2023-03-26T18:04:00.172Z,9.25
2023-03-26T18:06:49.891Z,8.52
2023-03-26T18:09:42.261Z,8.75
2023-03-26T18:12:33.631Z,8.63
2023-03-26T18:15:37.846Z,7.40
2023-03-26T18:18:20.152Z,8.00
2023-03-26T18:20:53.976Z,9.15
2023-03-26T18:23:28.315Z,10.60
2023-03-26T18:26:22.703Z,7.85
2023-03-26T18:29:11.144Z,6.93
2023-03-26T18:31:45.650Z,8.77
2023-03-26T18:34:22.157Z,9.45
2023-03-26T18:37:20.067Z,8.23
2023-03-26T18:40:17.527Z,9.57
2023-03-26T18:42:53.591Z,8.18
2023-03-26T18:45:31.397Z,8.45
2023-03-26T18:48:25.944Z,9.48
2023-03-26T18:51:09.331Z,9.30
2023-03-26T18:53:53.626Z,8.50
2023-03-26T18:56:32.644Z,10.23
2023-03-26T18:59:06.211Z,8.48
2023-03-26T19:01:39.829Z,8.43
2023-03-26T19:04:13.594Z,8.32
2023-03-26T19:06:46.115Z,6.75
2023-03-26T19:09:30.805Z,9.13
2023-03-26T19:12:32.486Z,7.78
2023-03-26T19:15:19.128Z,8.73
2023-03-26T19:17:55.415Z,8.63
2023-03-26T19:20:32.258Z,12.15
2023-03-26T19:25:40.430Z,9.70
2023-03-26T19:28:20.801Z,6.65
2023-03-26T19:31:00.515Z,8.82
2023-03-26T19:33:39.084Z,7.45
2023-03-26T19:36:27.279Z,8.60
2023-03-26T19:39:03.377Z,10.50
2023-03-26T19:41:40.840Z,8.65
2023-03-26T19:44:31.435Z,9.70
2023-03-26T19:47:08.502Z,9.63
2023-03-26T19:49:54.802Z,9.55
2023-03-26T19:52:31.253Z,9.57
2023-03-26T19:57:40.016Z,9.50
2023-03-26T20:00:16.785Z,8.40
2023-03-26T20:02:48.567Z,7.07
2023-03-26T20:05:27.813Z,15.70
2023-03-26T20:08:01.459Z,7.43
2023-03-26T20:10:31.830Z,7.72
2023-03-26T20:13:03.222Z,7.32
2023-03-26T20:15:36.794Z,9.30
2023-03-26T20:18:07.163Z,8.90
2023-03-26T20:20:38.134Z,7.43
2023-03-26T20:23:21.691Z,6.90
2023-03-26T20:25:55.922Z,10.23
2023-03-26T20:28:27.716Z,7.72
2023-03-26T20:30:59.841Z,9.45
2023-03-26T20:33:30.746Z,7.47
2023-03-26T20:36:02.037Z,9.52
2023-03-26T20:38:39.525Z,9.52
2023-03-26T20:41:15.483Z,7.90
2023-03-26T20:43:46.355Z,10.15
2023-03-26T20:46:23.509Z,9.27
2023-03-26T20:49:01.951Z,10.50
2023-03-26T20:51:32.182Z,8.48
2023-03-26T20:54:02.490Z,9.88
2023-03-26T20:56:33.244Z,10.05
2023-03-26T20:59:11.201Z,10.20
2023-03-26T21:01:42.392Z,10.98
2023-03-26T21:04:13.734Z,11.88
2023-03-26T21:06:47.119Z,9.80
2023-03-26T21:09:20.266Z,11.23
2023-03-26T21:12:10.124Z,9.95
2023-03-26T21:14:43.717Z,10.88
2023-03-26T21:17:21.221Z,9.57
2023-03-26T21:19:57.069Z,9.35
2023-03-26T21:22:48.635Z,9.80
2023-03-26T21:25:38.419Z,10.30
2023-03-26T21:28:41.893Z,8.77
2023-03-26T21:31:23.233Z,8.63
2023-03-26T21:33:54.429Z,7.80
2023-03-26T21:36:25.655Z,8.20
2023-03-26T21:38:56.504Z,7.18
2023-03-26T21:41:27.268Z,9.15
2023-03-26T21:43:57.650Z,9.95
2023-03-26T21:46:29.096Z,10.07
2023-03-26T21:49:00.950Z,8.00
2023-03-26T21:51:33.755Z,9.50
2023-03-26T21:54:04.627Z,12.23
2023-03-26T21:57:00.612Z,10.90
2023-03-26T22:00:16.559Z,10.55
2023-03-26T22:03:06.209Z,9.70
2023-03-26T22:05:50.125Z,9.50
2023-03-26T22:08:33.226Z,8.88
2023-03-26T22:11:04.133Z,10.75
2023-03-26T22:13:38.433Z,12.07
2023-03-26T22:16:11.141Z,9.98
2023-03-26T22:18:41.914Z,10.25
2023-03-26T22:21:12.661Z,9.75
2023-03-26T22:23:43.630Z,9.10
2023-03-26T22:26:14.285Z,10.38
2023-03-26T22:28:45.126Z,11.57
2023-03-26T22:31:15.672Z,9.20
2023-03-26T22:33:46.501Z,9.00
2023-03-26T22:36:23.373Z,9.63
2023-03-26T22:38:58.807Z,9.05
2023-03-26T22:41:32.535Z,8.85
2023-03-26T22:44:16.747Z,8.40
2023-03-26T22:46:54.457Z,9.55
2023-03-26T22:49:27.803Z,8.15
2023-03-26T22:51:59.121Z,10.07
2023-03-26T22:54:32.301Z,7.22
2023-03-26T22:57:03.126Z,8.15
2023-03-26T22:59:33.956Z,6.80
2023-03-26T23:02:04.706Z,8.27
2023-03-26T23:04:35.638Z,9.63
2023-03-26T23:07:07.429Z,7.82
2023-03-26T23:09:38.340Z,7.55
2023-03-26T23:12:09.352Z,6.60
2023-03-26T23:14:39.681Z,6.53
2023-03-26T23:17:16.595Z,6.85
2023-03-26T23:19:48.512Z,5.88
2023-03-26T23:22:19.409Z,6.13
2023-03-26T23:24:51.464Z,4.32
2023-03-26T23:27:23.702Z,6.25
2023-03-26T23:29:54.883Z,6.70
2023-03-26T23:32:27.200Z,6.90
2023-03-26T23:34:58.032Z,5.22
2023-03-26T23:37:31.436Z,7.30
2023-03-26T23:40:02.544Z,6.78
2023-03-26T23:42:33.643Z,7.32
2023-03-26T23:45:04.976Z,4.82
2023-03-26T23:47:36.469Z,4.68
2023-03-26T23:50:08.516Z,5.65
2023-03-26T23:52:39.814Z,5.65
2023-03-26T23:55:10.876Z,5.93
2023-03-26T23:57:42.700Z,5.90
